Weather at Aeropuerto Internacional de Cancún

Public forecast

Using degrees Celsius for public forecast. Weather courtesy of forecast.io.

Current aviation weather report (METAR) for Aeropuerto Internacional de Cancún

2024/05/25 22:40 (retrieved 54 minutes ago)

MMUN 252240Z 16014KT 7SM SCT015 30/24 A2986 RMK 8/100 ISOL TCU

Aviation forecast (TAF) for Aeropuerto Internacional de Cancún

2024/05/25 18:13 (retrieved 5 hours ago)

TAF MMUN 251706Z 2518/2618 14010KT P6SM SCT015 TX32/2519Z TN28/2612Z TEMPO 2522/2602 BKN015 FM260600 14005KT P6SM SCT015 FM261200 14005KT P6SM SCT015 SCT070